createdAt,value
2022-09-12T00:01:06.991Z,15.30
2022-09-12T00:03:35.737Z,14.40
2022-09-12T00:06:09.445Z,14.30
2022-09-12T00:08:37.555Z,14.13
2022-09-12T00:11:07.908Z,14.05
2022-09-12T00:13:41.367Z,14.93
2022-09-12T00:16:17.340Z,14.27
2022-09-12T00:18:47.157Z,14.02
2022-09-12T00:21:16.552Z,15.18
2022-09-12T00:23:44.871Z,15.63
2022-09-12T00:26:13.546Z,15.55
2022-09-12T00:28:42.615Z,16.05
2022-09-12T00:31:14.284Z,15.77
2022-09-12T00:33:43.878Z,15.85
2022-09-12T00:36:15.396Z,15.60
2022-09-12T00:38:43.840Z,15.10
2022-09-12T00:41:16.454Z,15.82
2022-09-12T00:43:46.468Z,14.43
2022-09-12T00:46:26.151Z,15.88
2022-09-12T00:49:00.050Z,14.98
2022-09-12T00:51:30.542Z,16.58
2022-09-12T00:54:00.697Z,15.52
2022-09-12T00:56:29.265Z,15.88
2022-09-12T00:59:02.307Z,17.27
2022-09-12T01:01:32.794Z,16.45
2022-09-12T01:04:01.508Z,17.13
2022-09-12T01:06:34.161Z,16.83
2022-09-12T01:09:04.198Z,16.55
2022-09-12T01:11:32.703Z,18.10
2022-09-12T01:14:00.903Z,16.58
2022-09-12T01:16:29.640Z,16.58
2022-09-12T01:19:16.127Z,16.50
2022-09-12T01:21:57.704Z,17.98
2022-09-12T01:24:54.991Z,17.95
2022-09-12T01:28:03.038Z,18.55
2022-09-12T01:30:48.601Z,17.58
2022-09-12T01:33:36.149Z,18.23
2022-09-12T01:36:25.911Z,17.45
2022-09-12T01:39:00.549Z,18.17
2022-09-12T01:41:33.515Z,18.38
2022-09-12T01:44:06.893Z,18.13
2022-09-12T01:46:44.092Z,18.48
2022-09-12T01:49:18.957Z,18.67
2022-09-12T01:51:58.334Z,17.35
2022-09-12T01:54:31.777Z,17.35
2022-09-12T01:57:04.831Z,17.50
2022-09-12T01:59:38.250Z,18.75
2022-09-12T02:02:11.556Z,19.45
2022-09-12T02:04:46.893Z,17.73
2022-09-12T02:07:21.367Z,19.45
2022-09-12T02:09:55.805Z,19.27
2022-09-12T02:12:29.750Z,18.20
2022-09-12T02:15:03.390Z,18.98
2022-09-12T02:17:36.955Z,18.55
2022-09-12T02:20:17.743Z,19.02
2022-09-12T02:23:01.514Z,19.83
2022-09-12T02:25:31.689Z,19.27
2022-09-12T02:28:05.143Z,19.20
2022-09-12T02:30:40.920Z,19.92
2022-09-12T02:33:19.384Z,19.17
2022-09-12T02:35:51.079Z,19.00
2022-09-12T02:38:25.871Z,19.02
2022-09-12T02:40:54.129Z,19.35
2022-09-12T02:43:22.637Z,18.95
2022-09-12T02:45:50.857Z,19.58
2022-09-12T02:48:24.563Z,20.13
2022-09-12T02:50:52.688Z,19.70
2022-09-12T02:53:21.386Z,19.92
2022-09-12T02:55:49.795Z,19.27
2022-09-12T02:58:20.399Z,19.42
2022-09-12T03:00:53.212Z,19.20
2022-09-12T03:03:49.186Z,18.02
2022-09-12T03:06:22.610Z,18.23
2022-09-12T03:09:07.865Z,19.25
2022-09-12T03:11:49.770Z,18.45
2022-09-12T03:14:37.246Z,19.98
2022-09-12T03:17:11.910Z,19.58
2022-09-12T03:19:53.825Z,18.60
2022-09-12T03:22:26.241Z,19.73
2022-09-12T03:25:01.563Z,18.80
2022-09-12T03:27:34.058Z,19.00
2022-09-12T03:30:03.032Z,20.30
2022-09-12T03:32:45.855Z,19.25
2022-09-12T03:35:19.840Z,18.75
2022-09-12T03:37:51.765Z,20.42
2022-09-12T03:40:20.240Z,19.02
2022-09-12T03:42:48.365Z,19.25
2022-09-12T03:45:16.873Z,20.33
2022-09-12T03:47:44.968Z,19.88
2022-09-12T03:50:12.962Z,21.23
2022-09-12T03:52:42.359Z,19.85
2022-09-12T03:55:10.998Z,22.02
2022-09-12T03:57:39.537Z,21.02
2022-09-12T04:00:09.198Z,20.30
2022-09-12T04:02:44.568Z,20.65
2022-09-12T04:05:12.600Z,21.08
2022-09-12T04:07:41.980Z,20.23
2022-09-12T04:10:10.530Z,20.92
2022-09-12T04:12:39.546Z,20.95
2022-09-12T04:15:08.830Z,20.88
2022-09-12T04:17:36.842Z,22.25
2022-09-12T04:20:05.386Z,21.58
2022-09-12T04:22:33.775Z,22.08
2022-09-12T04:25:03.249Z,22.35
2022-09-12T04:27:31.477Z,22.23
2022-09-12T04:30:02.195Z,21.85
2022-09-12T04:32:31.328Z,22.15
2022-09-12T04:34:59.317Z,22.98
2022-09-12T04:37:27.383Z,22.90
2022-09-12T04:39:57.859Z,23.58
2022-09-12T04:42:27.391Z,23.88
2022-09-12T04:44:55.414Z,22.90
2022-09-12T04:47:23.462Z,22.75
2022-09-12T04:49:52.468Z,23.83
2022-09-12T04:52:20.490Z,23.65
2022-09-12T04:54:48.625Z,25.60
2022-09-12T04:57:16.645Z,24.42
2022-09-12T04:59:46.020Z,23.75
2022-09-12T05:02:14.159Z,23.02
2022-09-12T05:04:42.155Z,24.10
2022-09-12T05:07:10.345Z,23.90
2022-09-12T05:09:38.365Z,23.83
2022-09-12T05:12:07.348Z,25.20
2022-09-12T05:14:35.661Z,25.08
2022-09-12T05:17:06.330Z,24.80
2022-09-12T05:19:34.724Z,24.63
2022-09-12T05:22:02.937Z,25.75
2022-09-12T05:24:30.923Z,25.25
2022-09-12T05:26:58.994Z,25.58
2022-09-12T05:29:27.147Z,24.65
2022-09-12T05:31:55.151Z,25.40
2022-09-12T05:34:24.699Z,25.48
2022-09-12T05:36:52.706Z,25.55
2022-09-12T05:39:20.746Z,24.90
2022-09-12T05:41:48.852Z,27.50
2022-09-12T05:44:17.246Z,27.20
2022-09-12T05:46:48.610Z,27.50
2022-09-12T05:49:16.817Z,26.98
2022-09-12T05:51:46.811Z,27.55
2022-09-12T05:54:17.851Z,26.73
2022-09-12T05:56:46.586Z,24.85
2022-09-12T05:59:16.947Z,24.83
2022-09-12T06:01:45.707Z,25.65
2022-09-12T06:04:14.017Z,24.88
2022-09-12T06:06:45.269Z,26.38
2022-09-12T06:09:16.061Z,25.63
2022-09-12T06:11:45.697Z,26.33
2022-09-12T06:14:15.537Z,26.77
2022-09-12T06:16:43.808Z,25.98
2022-09-12T06:19:16.165Z,25.77
2022-09-12T06:21:44.698Z,26.33
2022-09-12T06:24:14.282Z,27.60
2022-09-12T06:26:43.726Z,25.83
2022-09-12T06:29:13.388Z,26.05
2022-09-12T06:31:42.897Z,24.23
2022-09-12T06:34:14.062Z,26.02
2022-09-12T06:36:44.927Z,25.40
2022-09-12T06:39:16.230Z,24.92
2022-09-12T06:41:44.775Z,26.25
2022-09-12T06:44:16.050Z,24.77
2022-09-12T06:46:44.704Z,26.50
2022-09-12T06:49:12.971Z,26.15
2022-09-12T06:51:42.175Z,27.02
2022-09-12T06:54:11.041Z,27.40
2022-09-12T06:56:40.843Z,27.02
2022-09-12T06:59:08.927Z,26.50
2022-09-12T07:01:37.213Z,26.48
2022-09-12T07:04:06.148Z,25.45
2022-09-12T07:06:39.127Z,27.35
2022-09-12T07:09:08.976Z,26.48
2022-09-12T07:11:39.111Z,27.13
2022-09-12T07:14:11.057Z,26.95
2022-09-12T07:16:39.096Z,27.65
2022-09-12T07:19:08.414Z,28.00
2022-09-12T07:21:40.000Z,26.73
2022-09-12T07:24:10.086Z,25.90
2022-09-12T07:26:39.908Z,26.33
2022-09-12T07:32:02.519Z,28.55
2022-09-12T07:34:30.534Z,29.05
2022-09-12T07:36:58.683Z,28.65
2022-09-12T07:39:27.105Z,29.65
2022-09-12T07:41:55.087Z,28.65
2022-09-12T07:44:24.482Z,29.80
2022-09-12T07:46:52.472Z,29.88
2022-09-12T07:49:20.472Z,28.67
2022-09-12T07:51:48.449Z,29.70
2022-09-12T07:54:16.829Z,30.13
2022-09-12T07:56:45.886Z,29.65
2022-09-12T07:59:21.534Z,28.42
2022-09-12T08:01:59.531Z,28.88
2022-09-12T08:04:27.586Z,28.85
2022-09-12T08:06:55.682Z,28.38
2022-09-12T08:09:23.673Z,28.17
2022-09-12T08:11:51.859Z,27.92
2022-09-12T08:14:19.830Z,27.10
2022-09-12T08:16:48.178Z,28.02
2022-09-12T08:19:17.583Z,27.65
2022-09-12T08:21:45.611Z,26.48
2022-09-12T08:24:13.920Z,26.60
2022-09-12T08:26:43.014Z,26.15
2022-09-12T08:29:11.126Z,25.13
2022-09-12T08:31:39.154Z,25.13
2022-09-12T08:34:08.141Z,24.35
2022-09-12T08:36:37.651Z,23.75
2022-09-12T08:39:08.308Z,23.92
2022-09-12T08:41:39.782Z,22.17
2022-09-12T08:44:24.020Z,22.42
2022-09-12T08:47:04.798Z,20.83
2022-09-12T08:49:37.097Z,22.05
2022-09-12T08:52:12.082Z,20.13
2022-09-12T08:54:40.622Z,21.23
2022-09-12T08:57:12.012Z,19.15
2022-09-12T08:59:42.972Z,19.55
2022-09-12T09:02:34.645Z,19.60
2022-09-12T09:05:08.812Z,19.33
2022-09-12T09:08:01.995Z,19.85
2022-09-12T09:10:36.057Z,19.92
2022-09-12T09:13:10.641Z,18.92
2022-09-12T09:15:52.555Z,18.80
2022-09-12T09:18:24.901Z,18.02
2022-09-12T09:20:57.292Z,18.95
2022-09-12T09:23:31.117Z,18.02
2022-09-12T09:26:02.372Z,19.33
2022-09-12T09:28:38.161Z,18.63
2022-09-12T09:31:07.006Z,17.10
2022-09-12T09:33:36.242Z,17.88
2022-09-12T09:36:18.179Z,17.17
2022-09-12T09:38:50.789Z,16.27
2022-09-12T09:41:40.518Z,16.30
2022-09-12T09:44:08.972Z,16.48
2022-09-12T09:46:37.151Z,14.52
2022-09-12T09:49:07.803Z,14.05
2022-09-12T09:51:37.993Z,14.07
2022-09-12T09:54:18.549Z,13.02
2022-09-12T09:56:47.222Z,12.73
2022-09-12T09:59:18.637Z,12.65
2022-09-12T10:01:49.317Z,12.65
2022-09-12T10:04:25.507Z,12.50
2022-09-12T10:06:59.472Z,11.77
2022-09-12T10:09:33.024Z,12.20
2022-09-12T10:12:02.991Z,12.75
2022-09-12T10:14:37.963Z,13.80
2022-09-12T10:17:33.951Z,13.38
2022-09-12T10:22:51.633Z,11.63
2022-09-12T10:25:21.645Z,10.45
2022-09-12T10:27:55.468Z,12.10
2022-09-12T10:30:25.909Z,11.05
2022-09-12T10:32:54.378Z,11.15
2022-09-12T10:35:24.462Z,11.23
2022-09-12T10:37:56.493Z,9.32
2022-09-12T10:40:28.282Z,6.95
2022-09-12T10:42:58.178Z,6.65
2022-09-12T10:45:30.250Z,5.82
2022-09-12T10:48:03.053Z,6.00
2022-09-12T10:50:37.110Z,5.93
2022-09-12T10:53:19.266Z,5.03
2022-09-12T10:56:05.429Z,6.70
2022-09-12T10:59:03.555Z,7.03
2022-09-12T11:01:41.384Z,7.25
2022-09-12T11:04:30.575Z,6.50
2022-09-12T11:07:23.706Z,6.57
2022-09-12T11:09:58.739Z,7.20
2022-09-12T11:12:38.234Z,5.93
2022-09-12T11:15:22.494Z,5.80
2022-09-12T11:17:57.847Z,6.13
2022-09-12T11:20:54.983Z,6.78
2022-09-12T11:23:59.360Z,7.10
2022-09-12T11:26:40.684Z,7.03
2022-09-12T11:29:19.180Z,6.43
2022-09-12T11:32:12.530Z,7.38
2022-09-12T11:34:56.091Z,7.65
2022-09-12T11:37:47.084Z,7.93
2022-09-12T11:40:27.861Z,6.95
2022-09-12T11:43:02.734Z,9.23
2022-09-12T11:45:37.781Z,9.13
2022-09-12T11:48:13.082Z,9.05
2022-09-12T11:50:41.509Z,10.15
2022-09-12T11:53:17.122Z,9.80
2022-09-12T11:55:53.720Z,12.02
2022-09-12T11:58:25.513Z,11.32
2022-09-12T12:00:58.626Z,12.70
2022-09-12T12:03:33.271Z,13.77
2022-09-12T12:06:05.943Z,12.20
2022-09-12T12:08:39.750Z,13.50
2022-09-12T12:11:09.176Z,13.20
2022-09-12T12:13:41.046Z,14.05
2022-09-12T12:16:19.898Z,13.48
2022-09-12T12:18:55.892Z,14.98
2022-09-12T12:21:39.427Z,13.02
2022-09-12T12:24:16.717Z,11.38
2022-09-12T12:26:57.340Z,11.07
2022-09-12T12:29:44.067Z,11.73
2022-09-12T12:32:27.343Z,10.68
2022-09-12T12:35:32.693Z,10.18
2022-09-12T12:38:00.891Z,11.40
2022-09-12T12:40:31.119Z,9.30
2022-09-12T12:43:03.201Z,8.85
2022-09-12T12:46:06.983Z,7.60
2022-09-12T12:48:59.270Z,8.02
2022-09-12T12:51:44.107Z,10.02
2022-09-12T12:54:34.449Z,9.07
2022-09-12T12:57:18.446Z,7.13
2022-09-12T12:59:50.087Z,7.63
2022-09-12T13:02:23.902Z,7.50
2022-09-12T13:04:54.573Z,8.00
2022-09-12T13:07:28.841Z,7.68
2022-09-12T13:09:58.166Z,8.20
2022-09-12T13:12:29.653Z,7.35
2022-09-12T13:14:59.412Z,7.90
2022-09-12T13:17:31.986Z,7.53
2022-09-12T13:20:28.384Z,7.28
2022-09-12T13:23:22.197Z,8.25
2022-09-12T13:25:54.621Z,7.95
2022-09-12T13:28:23.101Z,9.65
2022-09-12T13:31:00.405Z,7.93
2022-09-12T13:33:36.897Z,7.30
2022-09-12T13:36:38.236Z,7.72
2022-09-12T13:39:16.001Z,7.15
2022-09-12T13:42:32.211Z,8.30
2022-09-12T13:45:04.356Z,7.97
2022-09-12T13:47:35.922Z,8.00
2022-09-12T13:50:05.588Z,9.00
2022-09-12T13:52:36.929Z,8.93
2022-09-12T13:55:09.782Z,10.20
2022-09-12T13:57:41.382Z,10.05
2022-09-12T14:00:20.094Z,10.52
2022-09-12T14:02:49.316Z,9.65
2022-09-12T14:05:22.216Z,8.35
2022-09-12T14:07:58.457Z,8.52
2022-09-12T14:10:33.189Z,8.25
2022-09-12T14:13:05.590Z,8.93
2022-09-12T14:15:38.104Z,10.13
2022-09-12T14:18:08.793Z,10.13
2022-09-12T14:20:39.562Z,9.68
2022-09-12T14:23:19.926Z,10.07
2022-09-12T14:25:49.410Z,8.55
2022-09-12T14:28:23.548Z,9.23
2022-09-12T14:31:01.649Z,9.18
2022-09-12T14:33:33.114Z,8.73
2022-09-12T14:36:13.311Z,9.35
2022-09-12T14:38:46.011Z,8.90
2022-09-12T14:41:21.943Z,8.50
2022-09-12T14:43:54.687Z,7.72
2022-09-12T14:46:28.504Z,7.45
2022-09-12T14:48:59.824Z,8.10
2022-09-12T14:51:32.365Z,6.88
2022-09-12T14:54:02.772Z,6.70
2022-09-12T14:56:42.368Z,6.45
2022-09-12T14:59:28.639Z,7.45
2022-09-12T15:02:26.741Z,7.45
2022-09-12T15:04:56.398Z,7.35
2022-09-12T15:07:33.033Z,7.30
2022-09-12T15:10:06.432Z,7.50
2022-09-12T15:12:34.952Z,7.30
2022-09-12T15:15:14.724Z,7.40
2022-09-12T15:17:43.478Z,7.72
2022-09-12T15:20:12.116Z,7.25
2022-09-12T15:22:41.426Z,7.50
2022-09-12T15:25:13.649Z,7.00
2022-09-12T15:27:42.389Z,6.75
2022-09-12T15:30:13.210Z,6.70
2022-09-12T15:32:43.376Z,6.72
2022-09-12T15:35:15.701Z,6.82
2022-09-12T15:37:44.002Z,6.15
2022-09-12T15:40:14.368Z,6.95
2022-09-12T15:42:43.550Z,6.28
2022-09-12T15:45:20.097Z,6.28
2022-09-12T15:47:48.465Z,6.57
2022-09-12T15:50:17.001Z,7.05
2022-09-12T15:52:45.457Z,7.22
2022-09-12T15:55:19.262Z,7.75
2022-09-12T15:57:47.973Z,6.78
2022-09-12T16:00:17.860Z,7.22
2022-09-12T16:02:47.365Z,7.47
2022-09-12T16:05:18.120Z,7.53
2022-09-12T16:07:46.645Z,7.05
2022-09-12T16:10:21.368Z,8.40
2022-09-12T16:12:49.888Z,7.88
2022-09-12T16:15:20.195Z,7.68
2022-09-12T16:17:48.516Z,7.00
2022-09-12T16:20:17.147Z,7.18
2022-09-12T16:22:45.558Z,6.80
2022-09-12T16:25:13.944Z,6.63
2022-09-12T16:27:43.923Z,7.65
2022-09-12T16:30:13.175Z,7.00
2022-09-12T16:32:41.602Z,7.20
2022-09-12T16:35:10.834Z,7.30
2022-09-12T16:37:39.102Z,6.60
2022-09-12T16:40:08.478Z,5.95
2022-09-12T16:42:40.722Z,6.90
2022-09-12T16:45:13.698Z,6.60
2022-09-12T16:47:42.013Z,6.93
2022-09-12T16:50:10.658Z,5.90
2022-09-12T16:52:38.938Z,6.47
2022-09-12T16:55:08.166Z,6.75
2022-09-12T16:57:36.473Z,6.85
2022-09-12T17:00:06.854Z,7.07
2022-09-12T17:02:36.732Z,6.63
2022-09-12T17:05:05.398Z,5.93
2022-09-12T17:07:34.300Z,5.68
2022-09-12T17:10:02.758Z,5.88
2022-09-12T17:12:31.070Z,5.68
2022-09-12T17:14:59.540Z,5.80
2022-09-12T17:17:28.016Z,5.32
2022-09-12T17:19:57.674Z,5.97
2022-09-12T17:22:26.065Z,5.32
2022-09-12T17:24:54.370Z,5.32
2022-09-12T17:27:22.619Z,5.40
2022-09-12T17:29:51.329Z,5.38
2022-09-12T17:32:19.649Z,5.32
2022-09-12T17:34:47.930Z,6.28
2022-09-12T17:37:17.831Z,6.20
2022-09-12T17:39:47.329Z,5.93
2022-09-12T17:42:15.633Z,5.60
2022-09-12T17:44:43.860Z,5.43
2022-09-12T17:47:12.097Z,5.82
2022-09-12T17:49:40.379Z,5.72
2022-09-12T17:52:08.646Z,5.50
2022-09-12T17:54:38.547Z,5.95
2022-09-12T17:57:07.171Z,5.70
2022-09-12T17:59:35.468Z,5.68
2022-09-12T18:02:16.241Z,5.75
2022-09-12T18:04:46.977Z,5.75
2022-09-12T18:07:16.010Z,5.88
2022-09-12T18:09:47.876Z,5.65
2022-09-12T18:12:16.423Z,5.97
2022-09-12T18:14:44.703Z,6.32
2022-09-12T18:17:13.005Z,6.00
2022-09-12T18:19:41.292Z,6.10
2022-09-12T18:22:09.715Z,6.40
2022-09-12T18:24:38.113Z,6.18
2022-09-12T18:27:07.817Z,6.07
2022-09-12T18:29:36.069Z,5.78
2022-09-12T18:32:04.355Z,6.50
2022-09-12T18:34:32.583Z,6.53
2022-09-12T18:37:02.040Z,6.38
2022-09-12T18:39:30.323Z,5.90
2022-09-12T18:41:58.577Z,6.22
2022-09-12T18:44:28.309Z,6.53
2022-09-12T18:46:56.609Z,6.35
2022-09-12T18:49:24.936Z,6.10
2022-09-12T18:51:53.186Z,6.20
2022-09-12T18:54:21.641Z,6.68
2022-09-12T18:56:49.980Z,6.25
2022-09-12T18:59:18.286Z,6.97
2022-09-12T19:01:48.093Z,6.38
2022-09-12T19:04:16.668Z,6.95
2022-09-12T19:06:46.734Z,6.80
2022-09-12T19:09:16.473Z,6.95
2022-09-12T19:11:49.584Z,6.50
2022-09-12T19:14:19.629Z,6.60
2022-09-12T19:16:50.803Z,6.65
2022-09-12T19:19:19.283Z,7.10
2022-09-12T19:21:47.608Z,6.47
2022-09-12T19:24:17.100Z,7.13
2022-09-12T19:26:45.753Z,6.82
2022-09-12T19:29:14.773Z,6.78
2022-09-12T19:31:43.174Z,6.65
2022-09-12T19:34:13.752Z,6.57
2022-09-12T19:36:46.782Z,6.93
2022-09-12T19:39:16.925Z,6.60
2022-09-12T19:41:45.607Z,6.90
2022-09-12T19:44:14.378Z,6.80
2022-09-12T19:46:42.743Z,6.70
2022-09-12T19:49:13.605Z,7.25
2022-09-12T19:51:42.458Z,6.78
2022-09-12T19:54:10.834Z,6.95
2022-09-12T19:56:39.398Z,6.63
2022-09-12T19:59:08.613Z,6.40
2022-09-12T20:01:37.682Z,6.50
2022-09-12T20:04:06.994Z,6.43
2022-09-12T20:06:36.891Z,6.75
2022-09-12T20:09:05.869Z,6.95
2022-09-12T20:11:34.109Z,7.18
2022-09-12T20:14:02.654Z,7.45
2022-09-12T20:16:31.181Z,7.18
2022-09-12T20:19:01.033Z,7.50
2022-09-12T20:21:33.121Z,7.35
2022-09-12T20:24:04.827Z,7.40
2022-09-12T20:26:33.600Z,7.30
2022-09-12T20:29:02.072Z,7.35
2022-09-12T20:31:31.223Z,7.32
2022-09-12T20:34:00.087Z,7.38
2022-09-12T20:36:28.631Z,6.82
2022-09-12T20:38:59.932Z,7.45
2022-09-12T20:41:32.538Z,7.50
2022-09-12T20:44:01.457Z,6.97
2022-09-12T20:46:30.370Z,7.55
2022-09-12T20:48:59.547Z,7.20
2022-09-12T20:51:29.808Z,7.00
2022-09-12T20:53:59.247Z,6.85
2022-09-12T20:56:29.521Z,7.43
2022-09-12T20:58:58.291Z,8.15
2022-09-12T21:01:27.863Z,7.63
2022-09-12T21:03:56.344Z,8.05
2022-09-12T21:06:25.177Z,8.00
2022-09-12T21:08:53.899Z,8.52
2022-09-12T21:11:22.197Z,8.43
2022-09-12T21:13:53.019Z,8.32
2022-09-12T21:16:22.943Z,8.63
2022-09-12T21:18:55.195Z,8.38
2022-09-12T21:21:23.894Z,8.50
2022-09-12T21:23:54.165Z,8.45
2022-09-12T21:26:22.528Z,9.50
2022-09-12T21:28:52.192Z,9.48
2022-09-12T21:31:20.793Z,9.55
2022-09-12T21:33:49.596Z,9.48
2022-09-12T21:36:18.276Z,9.15
2022-09-12T21:38:46.777Z,9.18
2022-09-12T21:41:16.886Z,10.05
2022-09-12T21:43:45.864Z,10.13
2022-09-12T21:46:15.626Z,10.32
2022-09-12T21:48:44.464Z,10.05
2022-09-12T21:51:12.663Z,10.48
2022-09-12T21:53:40.936Z,10.43
2022-09-12T21:56:10.179Z,10.48
2022-09-12T21:58:39.348Z,9.82
2022-09-12T22:01:11.912Z,10.23
2022-09-12T22:03:43.144Z,9.35
2022-09-12T22:06:11.478Z,8.85
2022-09-12T22:08:40.429Z,9.48
2022-09-12T22:11:10.394Z,10.70
2022-09-12T22:13:39.501Z,10.77
2022-09-12T22:16:08.346Z,9.15
2022-09-12T22:18:38.157Z,9.45
2022-09-12T22:21:09.553Z,9.70
2022-09-12T22:23:55.554Z,10.25
2022-09-12T22:26:24.138Z,11.35
2022-09-12T22:28:53.311Z,11.27
2022-09-12T22:31:22.395Z,11.90
2022-09-12T22:33:51.524Z,10.90
2022-09-12T22:36:21.218Z,10.57
2022-09-12T22:38:49.593Z,11.05
2022-09-12T22:41:18.102Z,11.80
2022-09-12T22:43:46.438Z,13.05
2022-09-12T22:46:14.965Z,13.60
2022-09-12T22:48:43.888Z,14.73
2022-09-12T22:51:12.477Z,15.90
2022-09-12T22:53:42.277Z,14.65
2022-09-12T22:56:10.876Z,14.20
2022-09-12T22:58:40.538Z,14.88
2022-09-12T23:01:10.104Z,16.55
2022-09-12T23:03:38.861Z,17.90
2022-09-12T23:06:08.718Z,17.95
2022-09-12T23:08:38.124Z,18.10
2022-09-12T23:11:10.326Z,19.77
2022-09-12T23:13:39.340Z,19.33
2022-09-12T23:16:09.278Z,19.33
2022-09-12T23:18:37.970Z,18.50
2022-09-12T23:21:08.151Z,17.98
2022-09-12T23:23:36.907Z,18.83
2022-09-12T23:26:12.517Z,17.50
2022-09-12T23:28:43.411Z,18.05
2022-09-12T23:31:11.774Z,16.63
2022-09-12T23:33:40.423Z,17.02
2022-09-12T23:36:12.756Z,17.35
2022-09-12T23:38:42.415Z,16.92
2022-09-12T23:41:13.465Z,16.38
2022-09-12T23:43:43.060Z,16.88
2022-09-12T23:46:11.375Z,16.63
2022-09-12T23:48:40.146Z,16.40
2022-09-12T23:51:08.635Z,16.00
2022-09-12T23:53:37.100Z,15.43
2022-09-12T23:56:06.141Z,15.60
2022-09-12T23:58:36.069Z,15.57
